Time;durP1;ratioP1;P1;durP2;ratioP2;P2;SDS_P1;SDS_P2;PMS_P1;PMS_P2;Temp;Humidity;BMP_temperature;BMP_pressure;BME280_temperature;BME280_humidity;BME280_pressure;Samples;Min_cycle;Max_cycle;Signal;HPM_P1;HPM_P2
2023/01/20 00:00:07;;;;;;;39.13;19.40;;;;;;;3.05;85.11;100291.75;4910751;29;20070;-80
2023/01/20 00:02:34;;;;;;;44.23;20.17;;;;;;;2.52;85.06;100220.72;4908032;28;20083;-82
2023/01/20 00:05:04;;;;;;;41.60;20.03;;;;;;;2.96;85.34;100298.41;4904877;29;20135;-80
2023/01/20 00:07:33;;;;;;;44.33;20.87;;;;;;;2.48;85.59;100218.41;4923767;28;20059;-79
2023/01/20 00:10:02;;;;;;;42.60;22.20;;;;;;;2.60;85.96;100237.75;4910753;29;20537;-80
2023/01/20 00:12:30;;;;;;;43.63;22.47;;;;;;;2.93;86.42;100297.75;4898315;29;20047;-81
2023/01/20 00:15:02;;;;;;;57.57;23.17;;;;;;;2.98;86.01;100300.94;4903730;29;20421;-80
2023/01/20 00:17:29;;;;;;;51.80;23.42;;;;;;;2.67;85.96;100253.03;4909665;29;20051;-79
2023/01/20 00:20:00;;;;;;;50.47;25.10;;;;;;;2.81;85.97;100280.16;4907885;29;20059;-79
2023/01/20 00:22:33;;;;;;;50.73;22.30;;;;;;;2.93;86.37;100314.31;4907587;29;20044;-80
2023/01/20 00:25:00;;;;;;;52.83;24.30;;;;;;;2.14;86.72;100183.78;4920500;29;20055;-80
2023/01/20 00:27:26;;;;;;;51.73;24.23;;;;;;;2.65;86.92;100249.66;4910335;29;20055;-79
2023/01/20 00:30:03;;;;;;;48.40;25.43;;;;;;;3.14;86.33;100304.28;4914599;28;20051;-81
2023/01/20 00:32:38;;;;;;;55.20;26.97;;;;;;;3.13;86.10;100305.22;4903881;28;20455;-80
2023/01/20 00:35:06;;;;;;;60.53;28.60;;;;;;;3.11;86.19;100307.09;4904590;28;20051;-79
2023/01/20 00:37:34;;;;;;;48.77;25.33;;;;;;;2.86;86.13;100257.13;4903728;28;20471;-80
2023/01/20 00:40:04;;;;;;;50.00;26.43;;;;;;;2.97;85.75;100286.97;4922176;29;20051;-78
2023/01/20 00:42:34;;;;;;;45.00;25.13;;;;;;;3.00;86.28;100299.06;4907182;28;20055;-81
2023/01/20 00:45:04;;;;;;;55.70;26.70;;;;;;;3.11;86.18;100317.59;4891401;28;20043;-80
2023/01/20 00:47:46;;;;;;;48.87;24.13;;;;;;;2.85;86.53;100279.03;4887280;29;20047;-80
2023/01/20 00:50:13;;;;;;;49.93;25.63;;;;;;;3.05;86.57;100322.38;4902840;29;20074;-79
2023/01/20 00:52:45;;;;;;;54.57;26.47;;;;;;;3.17;86.54;100325.06;4903008;29;20470;-80
2023/01/20 00:55:21;;;;;;;47.10;25.57;;;;;;;3.18;86.66;100337.25;4907142;29;20050;-81
2023/01/20 00:57:48;;;;;;;54.70;25.10;;;;;;;2.92;85.98;100290.84;4906995;29;20063;-78
2023/01/20 01:00:17;;;;;;;49.70;25.27;;;;;;;3.15;85.44;100339.22;4900600;29;20059;-81
2023/01/20 01:02:44;;;;;;;51.53;25.57;;;;;;;2.51;85.54;100241.78;4908526;28;20134;-76
2023/01/20 01:05:12;;;;;;;52.17;28.73;;;;;;;2.59;84.84;100276.22;4902955;29;20095;-79
2023/01/20 01:07:39;;;;;;;50.10;25.70;;;;;;;2.89;85.70;100327.72;4927637;28;20465;-80
2023/01/20 01:10:10;;;;;;;45.53;24.30;;;;;;;3.02;85.58;100357.50;4924085;28;20039;-79
2023/01/20 01:12:38;;;;;;;49.97;25.50;;;;;;;2.86;85.58;100338.38;4923516;28;20386;-80
2023/01/20 01:15:06;;;;;;;47.60;25.07;;;;;;;2.95;85.48;100364.91;4907871;29;20263;-79
2023/01/20 01:17:33;;;;;;;45.40;25.43;;;;;;;2.89;85.97;100372.28;4887129;29;20508;-78
2023/01/20 01:20:04;;;;;;;52.63;26.00;;;;;;;2.50;86.22;100321.31;4888170;29;20079;-78
2023/01/20 01:22:54;;;;;;;50.93;26.67;;;;;;;2.84;85.88;100369.09;4908503;29;20057;-77
2023/01/20 01:25:27;;;;;;;50.20;26.70;;;;;;;2.65;86.74;100330.06;4891744;29;20107;-79
2023/01/20 01:28:13;;;;;;;43.90;24.80;;;;;;;2.77;86.99;100356.38;4915802;29;20118;-80
2023/01/20 01:30:47;;;;;;;50.33;26.63;;;;;;;2.96;86.81;100376.22;4907634;29;20062;-79
2023/01/20 01:33:16;;;;;;;54.10;28.90;;;;;;;1.89;86.73;100189.63;4882757;29;20279;-78
2023/01/20 01:36:02;;;;;;;47.65;27.23;;;;;;;2.97;87.20;100370.06;4897882;29;20358;-78
2023/01/20 01:38:32;;;;;;;42.07;25.43;;;;;;;2.74;86.82;100308.53;4883535;29;20048;-79
2023/01/20 01:40:59;;;;;;;44.20;24.80;;;;;;;3.09;86.67;100377.19;4913087;29;20350;-80
2023/01/20 01:43:29;;;;;;;41.67;24.70;;;;;;;3.07;86.17;100359.84;4911652;28;20055;-79
2023/01/20 01:45:56;;;;;;;41.30;24.60;;;;;;;3.05;86.51;100344.19;4899764;29;20047;-81
2023/01/20 01:48:32;;;;;;;40.67;22.70;;;;;;;3.10;85.99;100362.28;4901511;29;20520;-82
2023/01/20 01:51:18;;;;;;;41.67;23.37;;;;;;;2.91;85.94;100329.31;4927077;29;20062;-79
2023/01/20 01:53:56;;;;;;;37.73;21.93;;;;;;;2.85;86.21;100305.25;4917404;29;20063;-84
2023/01/20 01:56:28;;;;;;;26.87;18.23;;;;;;;3.15;85.11;100361.03;4913782;29;20297;-77
2023/01/20 01:59:01;;;;;;;31.00;19.93;;;;;;;2.72;85.13;100290.28;4903180;29;20687;-80
2023/01/20 02:01:39;;;;;;;27.03;19.57;;;;;;;3.03;85.20;100356.56;4903808;29;20130;-78
2023/01/20 02:04:15;;;;;;;32.63;18.67;;;;;;;2.98;85.63;100348.13;4906814;29;20439;-81
2023/01/20 02:06:47;;;;;;;31.40;20.00;;;;;;;3.04;85.45;100358.25;4927910;29;20184;-80
2023/01/20 02:09:13;;;;;;;31.88;19.38;;;;;;;2.98;85.55;100345.50;4908743;29;20295;-79
2023/01/20 02:11:48;;;;;;;24.90;17.80;;;;;;;3.07;85.68;100362.47;4908502;29;20405;-81
2023/01/20 02:14:31;;;;;;;34.37;20.37;;;;;;;2.97;85.41;100326.31;4916405;28;20352;-80
2023/01/20 02:17:41;;;;;;;29.30;19.50;;;;;;;2.97;86.06;100355.16;4910711;29;20147;-79
2023/01/20 02:20:34;;;;;;;31.50;20.60;;;;;;;3.09;85.99;100342.25;4912371;29;20170;-79
2023/01/20 02:23:29;;;;;;;30.40;20.37;;;;;;;3.13;86.15;100344.59;4887964;29;20559;-78
2023/01/20 02:26:36;;;;;;;31.77;21.03;;;;;;;2.94;85.63;100309.94;4891345;29;20059;-82
2023/01/20 02:29:03;;;;;;;33.87;20.40;;;;;;;2.53;86.13;100242.56;4892512;29;20066;-82
2023/01/20 02:32:04;;;;;;;33.80;21.80;;;;;;;2.74;85.26;100277.06;4921878;28;20497;-79
2023/01/20 02:34:45;;;;;;;31.93;21.53;;;;;;;2.84;85.34;100293.06;4910795;29;20087;-80
2023/01/20 02:37:24;;;;;;;32.50;22.43;;;;;;;3.11;85.03;100330.72;4910581;29;20569;-79
2023/01/20 02:40:04;;;;;;;;;;;;;;;3.02;84.93;100338.31;4909052;29;20333;-79
2023/01/20 02:42:43;;;;;;;30.77;20.33;;;;;;;2.82;85.47;100297.59;4928750;28;20373;-81
2023/01/20 02:45:14;;;;;;;33.60;23.47;;;;;;;2.73;85.33;100302.44;4897586;29;20391;-79
2023/01/20 02:48:08;;;;;;;37.15;23.40;;;;;;;2.69;85.33;100295.69;4884877;29;20502;-82
2023/01/20 02:51:01;;;;;;;34.03;21.10;;;;;;;2.81;86.08;100316.84;4891011;29;20367;-81
2023/01/20 02:53:40;;;;;;;30.00;21.77;;;;;;;2.11;86.38;100183.94;4882523;29;20063;-80
2023/01/20 02:56:08;;;;;;;29.87;21.10;;;;;;;2.93;86.27;100316.94;4887969;29;20083;-81
2023/01/20 02:58:46;;;;;;;31.63;21.17;;;;;;;2.83;85.52;100297.47;4889019;29;20081;-81
2023/01/20 03:01:30;;;;;;;34.73;23.53;;;;;;;2.92;85.94;100302.16;4921693;29;20058;-79
2023/01/20 03:03:59;;;;;;;33.33;22.52;;;;;;;2.84;85.69;100291.31;4910729;28;20142;-80
2023/01/20 03:06:48;;;;;;;38.80;25.30;;;;;;;3.00;85.71;100309.53;4911417;29;20598;-78
2023/01/20 03:09:29;;;;;;;44.93;27.67;;;;;;;1.82;85.60;100122.88;4921598;28;20373;-81
2023/01/20 03:12:03;;;;;;;40.00;24.30;;;;;;;2.69;86.38;100255.53;4930845;28;20132;-80
2023/01/20 03:14:32;;;;;;;47.50;25.30;;;;;;;2.90;86.10;100293.53;4912298;29;20047;-79
2023/01/20 03:17:03;;;;;;;40.17;24.47;;;;;;;2.93;86.18;100282.84;4911501;28;20444;-81
2023/01/20 03:19:33;;;;;;;48.63;27.00;;;;;;;3.21;86.24;100323.13;4914219;29;20051;-78
2023/01/20 03:22:07;;;;;;;42.93;27.53;;;;;;;3.16;85.95;100326.03;4911506;29;20569;-79
2023/01/20 03:24:36;;;;;;;42.00;26.50;;;;;;;3.04;85.96;100305.81;4912600;29;20145;-79
2023/01/20 03:27:11;;;;;;;43.70;26.30;;;;;;;3.22;86.01;100323.00;4912820;29;20512;-80
2023/01/20 03:29:44;;;;;;;49.03;27.73;;;;;;;3.17;84.96;100306.72;4910650;28;20131;-80
2023/01/20 03:32:17;;;;;;;50.53;28.23;;;;;;;3.19;85.29;100325.81;4911056;28;20047;-78
2023/01/20 03:34:45;;;;;;;49.20;29.30;;;;;;;2.93;85.72;100282.03;4912221;29;20047;-79
2023/01/20 03:37:14;;;;;;;47.90;29.20;;;;;;;3.18;86.41;100315.41;4909967;28;20075;-80
2023/01/20 03:39:41;;;;;;;51.00;29.73;;;;;;;3.14;86.06;100306.91;4910162;28;20565;-82
2023/01/20 03:42:36;;;;;;;51.07;28.87;;;;;;;3.23;86.06;100318.63;4912695;28;20086;-79
2023/01/20 03:45:12;;;;;;;52.43;30.17;;;;;;;3.24;86.00;100316.84;4908806;28;20054;-79
2023/01/20 03:47:47;;;;;;;56.77;31.17;;;;;;;2.84;86.19;100248.50;4898395;29;20048;-79
2023/01/20 03:50:52;;;;;;;48.70;29.73;;;;;;;3.23;86.02;100308.13;4888806;29;20498;-80
2023/01/20 03:53:31;;;;;;;58.03;30.43;;;;;;;3.34;86.16;100321.38;4879023;29;20047;-78
2023/01/20 03:56:47;;;;;;;46.27;27.30;;;;;;;3.36;86.12;100310.81;4905110;29;20062;-80
2023/01/20 03:59:19;;;;;;;54.80;32.47;;;;;;;3.27;86.21;100308.75;4894388;29;20056;-80
2023/01/20 04:02:10;;;;;;;55.95;30.63;;;;;;;3.41;86.07;100319.22;4893141;29;20087;-81
2023/01/20 04:04:43;;;;;;;52.77;29.27;;;;;;;3.36;86.07;100300.31;4882941;29;20426;-78
2023/01/20 04:07:17;;;;;;;56.90;31.20;;;;;;;3.38;85.70;100316.81;4908010;29;20110;-78
2023/01/20 04:09:49;;;;;;;51.03;28.40;;;;;;;3.36;86.73;100316.06;4908161;29;20350;-77
2023/01/20 04:12:16;;;;;;;56.20;30.47;;;;;;;3.16;86.43;100280.59;4890559;29;20492;-79
2023/01/20 04:14:49;;;;;;;56.07;31.40;;;;;;;3.34;86.28;100317.94;4894228;29;20347;-79
2023/01/20 04:17:38;;;;;;;56.07;33.10;;;;;;;3.09;87.17;100285.38;4891873;29;20142;-79
2023/01/20 04:20:12;;;;;;;57.42;30.08;;;;;;;3.46;86.93;100317.16;4877613;29;20059;-79
2023/01/20 04:23:00;;;;;;;60.70;31.43;;;;;;;3.41;86.40;100319.22;4887256;29;20590;-79
2023/01/20 04:25:35;;;;;;;59.13;33.50;;;;;;;3.26;86.35;100302.69;4902855;29;20339;-79
2023/01/20 04:28:05;;;;;;;59.03;33.13;;;;;;;3.35;86.65;100299.47;4908456;29;20099;-78
2023/01/20 04:30:32;;;;;;;57.87;32.00;;;;;;;3.37;86.61;100297.59;4886127;29;20308;-79
2023/01/20 04:32:59;;;;;;;60.20;31.83;;;;;;;3.31;86.94;100299.75;4878635;29;20486;-80
2023/01/20 04:35:36;;;;;;;53.53;31.67;;;;;;;3.33;86.85;100288.22;4892955;29;20284;-79
2023/01/20 04:38:16;;;;;;;55.43;30.40;;;;;;;3.46;86.49;100295.31;4887027;29;20516;-77
2023/01/20 04:40:42;;;;;;;55.33;31.00;;;;;;;3.52;86.49;100311.53;4897622;29;20083;-81
2023/01/20 04:43:14;;;;;;;59.95;32.05;;;;;;;3.34;86.59;100289.06;4907894;29;20525;-77
2023/01/20 04:45:44;;;;;;;56.33;32.50;;;;;;;3.50;86.57;100302.91;4889873;29;20111;-80
2023/01/20 04:48:13;;;;;;;54.07;31.03;;;;;;;3.53;86.20;100313.19;4875571;29;20093;-78
2023/01/20 04:50:40;;;;;;;54.77;31.03;;;;;;;3.44;85.63;100303.28;4914654;29;20600;-80
2023/01/20 04:53:12;;;;;;;59.17;33.20;;;;;;;3.35;85.97;100298.59;4915790;29;20429;-79
2023/01/20 04:55:42;;;;;;;66.75;34.80;;;;;;;3.17;86.29;100277.84;4902326;28;20561;-80
2023/01/20 04:58:13;;;;;;;53.13;30.47;;;;;;;3.49;86.62;100323.97;4910084;28;20394;-79
2023/01/20 05:00:49;;;;;;;53.40;31.17;;;;;;;3.22;85.60;100283.66;4893708;29;20329;-78
2023/01/20 05:03:22;;;;;;;57.80;32.20;;;;;;;3.38;86.32;100320.25;4892970;29;20280;-77
2023/01/20 05:06:01;;;;;;;63.87;33.87;;;;;;;3.45;86.35;100335.59;4903916;29;20251;-77
2023/01/20 05:08:32;;;;;;;55.77;32.17;;;;;;;3.39;86.42;100337.69;4873328;29;20326;-79
2023/01/20 05:11:02;;;;;;;59.53;31.90;;;;;;;3.34;86.33;100317.94;4887330;29;20368;-79
2023/01/20 05:13:29;;;;;;;54.93;30.17;;;;;;;3.45;85.70;100331.22;4903547;28;20070;-77
2023/01/20 05:16:03;;;;;;;63.40;33.60;;;;;;;3.34;85.63;100323.19;4907690;29;20486;-78
2023/01/20 05:18:33;;;;;;;56.97;32.60;;;;;;;3.36;85.37;100329.19;4929691;28;20335;-77
2023/01/20 05:21:04;;;;;;;54.20;30.27;;;;;;;3.28;85.73;100307.84;4923719;28;20118;-78
2023/01/20 05:23:34;;;;;;;59.37;32.07;;;;;;;3.36;85.87;100322.13;4911005;29;20243;-78
2023/01/20 05:26:03;;;;;;;58.90;31.53;;;;;;;3.04;85.48;100274.34;4907838;29;20079;-79
2023/01/20 05:28:34;;;;;;;62.37;33.20;;;;;;;2.53;85.34;100190.13;4907645;29;20043;-78
2023/01/20 05:31:03;;;;;;;64.20;32.23;;;;;;;3.18;85.36;100312.78;4905951;29;20086;-77
2023/01/20 05:33:33;;;;;;;59.07;32.10;;;;;;;3.12;85.51;100327.13;4895214;29;20481;-76
2023/01/20 05:36:04;;;;;;;62.10;33.27;;;;;;;2.84;85.59;100277.34;4906559;28;20048;-77
2023/01/20 05:38:52;;;;;;;56.07;31.50;;;;;;;3.19;85.41;100333.69;4866507;29;20389;-78
2023/01/20 05:41:20;;;;;;;60.20;28.97;;;;;;;3.09;85.98;100324.72;4901986;29;20155;-78
2023/01/20 05:43:47;;;;;;;58.53;32.33;;;;;;;3.01;85.72;100308.63;4907391;29;20636;-78
2023/01/20 05:46:14;;;;;;;58.20;32.47;;;;;;;3.25;86.02;100357.84;4892982;29;20047;-76
2023/01/20 05:48:41;;;;;;;59.93;31.53;;;;;;;3.25;86.02;100368.34;4899109;29;20954;-77
2023/01/20 05:51:07;;;;;;;60.83;34.20;;;;;;;3.29;86.10;100375.09;4910621;29;20141;-78
2023/01/20 05:53:40;;;;;;;56.10;32.23;;;;;;;3.20;85.69;100361.63;4908294;29;20051;-78
2023/01/20 05:56:10;;;;;;;62.03;32.97;;;;;;;3.13;85.54;100347.19;4919149;29;20438;-77
2023/01/20 05:58:54;;;;;;;70.47;33.90;;;;;;;3.33;86.31;100382.69;4895377;29;20335;-78
2023/01/20 06:01:29;;;;;;;59.97;32.57;;;;;;;3.27;86.23;100374.34;4890558;29;20063;-79
2023/01/20 06:03:59;;;;;;;64.07;34.77;;;;;;;3.22;85.82;100383.34;4904620;29;20844;-78
2023/01/20 06:06:33;;;;;;;58.53;34.67;;;;;;;3.03;86.03;100356.56;4905586;29;20482;-76
2023/01/20 06:08:59;;;;;;;65.60;33.73;;;;;;;2.90;86.21;100351.22;4903176;29;20043;-78
2023/01/20 06:11:34;;;;;;;65.63;36.70;;;;;;;3.20;86.78;100385.25;4925649;28;20063;-78
2023/01/20 06:14:06;;;;;;;63.53;32.57;;;;;;;3.31;86.55;100386.34;4907898;28;20047;-77
2023/01/20 06:16:33;;;;;;;61.40;34.63;;;;;;;3.15;86.34;100362.84;4900222;28;20137;-77
2023/01/20 06:19:03;;;;;;;61.50;32.90;;;;;;;3.05;86.51;100344.19;4926080;28;20290;-77
2023/01/20 06:21:35;;;;;;;73.20;34.17;;;;;;;3.22;86.08;100380.72;4944917;28;20085;-77
2023/01/20 06:24:02;;;;;;;68.50;36.07;;;;;;;2.90;86.34;100350.38;4926578;28;20066;-78
2023/01/20 06:26:31;;;;;;;63.40;35.53;;;;;;;3.20;87.06;100389.63;4913758;29;20474;-76
2023/01/20 06:29:16;;;;;;;63.13;36.30;;;;;;;3.21;86.85;100392.16;4896813;29;20082;-78
2023/01/20 06:31:46;;;;;;;64.07;31.67;;;;;;;3.33;87.02;100403.69;4941778;28;20512;-78
2023/01/20 06:34:16;;;;;;;62.90;34.33;;;;;;;3.27;86.36;100392.72;4926701;28;20430;-76
2023/01/20 06:36:42;;;;;;;67.03;34.97;;;;;;;3.09;86.12;100361.44;4943473;28;20420;-78
2023/01/20 06:39:10;;;;;;;67.67;33.43;;;;;;;3.08;86.54;100366.75;4920639;29;20451;-76
2023/01/20 06:41:37;;;;;;;62.00;34.23;;;;;;;3.09;86.74;100361.44;4887880;28;20334;-76
2023/01/20 06:44:03;;;;;;;69.60;35.33;;;;;;;3.32;86.19;100403.75;4905634;29;20147;-77
2023/01/20 06:46:30;;;;;;;69.07;35.03;;;;;;;3.26;86.22;100391.88;4908456;28;20434;-77
2023/01/20 06:49:06;;;;;;;64.80;35.73;;;;;;;3.15;86.51;100376.78;4908941;29;20074;-77
2023/01/20 06:51:32;;;;;;;60.53;33.90;;;;;;;3.35;86.77;100414.94;4906864;29;20051;-77
2023/01/20 06:54:02;;;;;;;65.27;33.57;;;;;;;3.36;86.97;100407.91;4910164;28;20074;-77
2023/01/20 06:56:28;;;;;;;66.37;34.17;;;;;;;3.31;86.57;100394.22;4905195;29;20366;-77
2023/01/20 06:58:55;;;;;;;67.93;33.33;;;;;;;3.10;86.22;100346.53;4904247;29;20130;-78
2023/01/20 07:01:25;;;;;;;66.83;34.03;;;;;;;3.36;85.95;100397.41;4886135;29;20048;-77
2023/01/20 07:03:55;;;;;;;64.43;33.43;;;;;;;3.45;86.16;100402.09;4919017;28;20060;-77
2023/01/20 07:06:25;;;;;;;63.93;33.63;;;;;;;3.44;85.87;100408.25;4929696;28;20051;-77
2023/01/20 07:08:52;;;;;;;64.87;34.07;;;;;;;3.28;85.69;100386.53;4947150;28;20054;-77
2023/01/20 07:11:19;;;;;;;62.90;31.83;;;;;;;3.28;86.22;100394.41;4907760;28;20545;-76
2023/01/20 07:14:29;;;;;;;57.35;32.03;;;;;;;3.35;85.78;100385.19;4948154;28;20391;-76
2023/01/20 07:16:59;;;;;;;62.80;33.00;;;;;;;3.52;85.42;100411.25;4969963;28;20504;-75
2023/01/20 07:19:28;;;;;;;;;;;;;;;3.52;85.08;100413.88;4952513;28;20050;-76
2023/01/20 07:21:55;;;;;;;58.67;31.43;;;;;;;3.45;85.85;100399.47;4962783;28;20491;-74
2023/01/20 07:24:21;;;;;;;60.50;30.33;;;;;;;3.34;85.04;100375.66;4954532;28;20054;-75
2023/01/20 07:26:51;;;;;;;58.30;30.63;;;;;;;3.56;85.41;100420.59;4921080;28;20093;-75
2023/01/20 07:29:21;;;;;;;65.17;34.23;;;;;;;3.63;84.93;100418.44;4916101;28;20050;-73
2023/01/20 07:31:56;;;;;;;63.78;33.22;;;;;;;3.54;84.70;100400.63;4924230;29;20110;-78
2023/01/20 07:34:23;;;;;;;62.00;33.00;;;;;;;3.58;85.21;100426.59;4909572;28;20063;-76
2023/01/20 07:36:53;;;;;;;64.90;35.17;;;;;;;3.24;84.83;100371.91;4909086;28;20219;-76
2023/01/20 07:39:20;;;;;;;68.30;36.27;;;;;;;3.49;85.09;100416.69;4914736;28;20058;-74
2023/01/20 07:41:53;;;;;;;67.10;36.47;;;;;;;3.60;85.62;100429.97;4926921;28;20055;-76
2023/01/20 07:44:23;;;;;;;76.03;36.97;;;;;;;3.57;85.41;100417.06;4907089;29;20082;-76
2023/01/20 07:46:56;;;;;;;67.33;34.37;;;;;;;3.71;84.88;100441.59;4913402;28;20468;-76
2023/01/20 07:49:25;;;;;;;72.87;37.33;;;;;;;3.59;85.27;100423.06;4927549;28;20082;-74
2023/01/20 07:51:52;;;;;;;71.33;36.80;;;;;;;3.70;84.94;100447.78;4906558;29;20045;-74
2023/01/20 07:54:25;;;;;;;75.40;37.40;;;;;;;3.68;84.93;100439.16;4913909;29;20130;-76
2023/01/20 07:56:52;;;;;;;71.03;35.37;;;;;;;3.59;84.83;100445.81;4917304;28;20054;-76
2023/01/20 07:59:22;;;;;;;72.10;38.30;;;;;;;3.46;84.84;100409.00;4913914;28;20065;-76
2023/01/20 08:01:51;;;;;;;71.17;37.30;;;;;;;3.60;84.67;100444.91;4921951;28;20789;-75
2023/01/20 08:04:22;;;;;;;73.10;37.07;;;;;;;3.63;84.70;100456.03;4923756;28;20059;-78
2023/01/20 08:07:38;;;;;;;80.37;38.60;;;;;;;3.51;85.41;100438.44;4919226;28;20101;-77
2023/01/20 08:10:07;;;;;;;;;;;;;;;3.55;85.35;100471.44;4922855;28;20412;-79
2023/01/20 08:12:34;;;;;;;76.33;36.03;;;;;;;3.39;85.20;100439.19;4938359;28;20141;-80
2023/01/20 08:15:01;;;;;;;79.20;37.53;;;;;;;3.52;85.51;100468.13;4943616;28;20109;-77
2023/01/20 08:17:28;;;;;;;75.77;38.50;;;;;;;3.54;85.91;100474.13;4909416;28;20234;-79
2023/01/20 08:19:58;;;;;;;83.80;42.63;;;;;;;3.51;85.82;100482.22;4897131;28;20513;-76
2023/01/20 08:22:36;;;;;;;84.07;40.90;;;;;;;3.50;86.05;100473.50;4875003;29;20051;-79
2023/01/20 08:25:03;;;;;;;78.93;39.43;;;;;;;3.48;86.33;100478.00;4887705;28;20471;-78
2023/01/20 08:27:48;;;;;;;79.00;38.83;;;;;;;3.29;86.39;100441.53;4887389;28;20074;-77
2023/01/20 08:30:17;;;;;;;94.50;41.73;;;;;;;3.58;86.48;100494.84;4889184;28;20992;-76
2023/01/20 08:32:49;;;;;;;66.20;34.60;;;;;;;3.51;86.24;100469.94;4886798;28;20875;-77
2023/01/20 08:35:17;;;;;;;65.43;35.63;;;;;;;3.36;85.12;100455.13;4888324;28;20050;-77
2023/01/20 08:37:43;;;;;;;77.53;37.83;;;;;;;3.61;85.04;100489.41;4919053;28;20051;-77
2023/01/20 08:40:35;;;;;;;72.53;36.13;;;;;;;3.29;84.98;100430.19;4913188;28;20413;-79
2023/01/20 08:43:02;;;;;;;83.77;40.43;;;;;;;3.62;85.52;100496.38;4895620;28;20230;-79
2023/01/20 08:45:42;;;;;;;80.23;34.13;;;;;;;3.45;85.27;100467.69;4875239;28;20310;-80
2023/01/20 08:48:20;;;;;;;74.57;37.83;;;;;;;3.55;85.51;100489.81;4890930;28;20057;-80
2023/01/20 08:50:58;;;;;;;72.47;37.20;;;;;;;3.29;85.91;100453.81;4923336;28;20291;-77
2023/01/20 08:53:47;;;;;;;73.70;37.20;;;;;;;3.58;86.00;100504.53;4927921;28;20663;-77
2023/01/20 08:56:24;;;;;;;72.10;37.27;;;;;;;3.36;85.32;100452.50;4879330;28;20047;-77
2023/01/20 08:59:31;;;;;;;77.17;36.60;;;;;;;3.90;84.84;100534.03;4896545;29;20234;-79
2023/01/20 09:02:01;;;;;;;60.93;33.83;;;;;;;3.82;83.68;100533.69;4848050;29;20196;-78
2023/01/20 09:04:29;;;;;;;62.37;33.13;;;;;;;3.64;84.00;100520.75;4842404;28;20048;-77
2023/01/20 09:06:57;;;;;;;62.93;31.70;;;;;;;3.51;83.00;100501.41;4883277;28;20043;-77
2023/01/20 09:09:24;;;;;;;57.73;31.17;;;;;;;3.62;83.56;100520.00;4878451;29;20058;-79
2023/01/20 09:14:52;;;;;;;50.30;28.53;;;;;;;3.65;82.78;100526.84;4880770;29;20240;-78
2023/01/20 09:17:19;;;;;;;52.53;28.43;;;;;;;3.41;83.23;100487.19;4883719;29;20086;-79
2023/01/20 09:19:45;;;;;;;53.63;30.00;;;;;;;3.67;83.19;100532.00;4864772;29;20142;-79
2023/01/20 09:22:18;;;;;;;52.53;29.83;;;;;;;3.61;83.18;100531.41;4872480;29;20047;-80
2023/01/20 09:24:53;;;;;;;57.97;30.80;;;;;;;3.48;83.78;100513.91;4850959;29;20071;-80
2023/01/20 09:27:21;;;;;;;53.53;28.90;;;;;;;3.31;83.78;100480.81;4870527;29;20135;-80
2023/01/20 09:29:51;;;;;;;57.30;28.90;;;;;;;3.51;83.77;100513.72;4841673;29;20451;-78
2023/01/20 09:32:18;;;;;;;51.93;28.27;;;;;;;3.56;83.98;100512.47;4886485;29;20086;-81
2023/01/20 09:34:46;;;;;;;59.10;28.43;;;;;;;3.79;84.10;100557.50;4883432;29;20122;-79
2023/01/20 09:43:53;;;;;;;56.70;30.53;;;;;;;3.71;83.36;100547.44;4908619;29;20051;-80
2023/01/20 09:46:35;;;;;;;64.20;30.53;;;;;;;3.81;84.29;100558.22;4885242;29;20047;-83
2023/01/20 09:54:47;;;;;;;65.70;34.05;;;;;;;3.87;84.40;100549.16;4911427;29;20047;-80
2023/01/20 09:57:18;;;;;;;74.67;33.17;;;;;;;3.90;84.20;100552.41;4892797;29;20059;-80
2023/01/20 09:59:53;;;;;;;61.57;32.70;;;;;;;3.94;84.70;100561.81;4892923;29;20473;-77
2023/01/20 10:02:33;;;;;;;64.70;32.80;;;;;;;3.90;84.42;100547.16;4923716;28;20474;-81
2023/01/20 10:05:18;;;;;;;66.57;34.17;;;;;;;3.95;84.46;100560.84;4924562;28;20046;-79
2023/01/20 10:07:45;;;;;;;;;;;;;;;3.95;84.78;100560.84;4947883;28;20081;-79
2023/01/20 10:10:17;;;;;;;64.63;32.77;;;;;;;3.51;85.27;100498.78;4926843;28;19925;-78
2023/01/20 10:13:03;;;;;;;64.20;31.43;;;;;;;4.03;85.18;100569.13;4911884;29;20162;-78
2023/01/20 10:15:35;;;;;;;61.00;32.57;;;;;;;4.06;85.13;100579.44;4913003;29;20043;-79
2023/01/20 10:18:12;;;;;;;61.00;31.97;;;;;;;4.11;84.69;100571.28;4914459;29;20039;-78
2023/01/20 10:20:57;;;;;;;76.07;35.28;;;;;;;4.17;84.17;100570.03;4914743;28;20075;-78
2023/01/20 10:23:48;;;;;;;65.53;34.27;;;;;;;4.09;83.74;100567.06;4910226;28;20051;-76
2023/01/20 10:26:32;;;;;;;58.13;30.67;;;;;;;3.60;84.07;100493.00;4910252;29;20051;-77
2023/01/20 10:29:04;;;;;;;64.73;32.40;;;;;;;4.07;84.51;100565.34;4898450;28;20110;-78
2023/01/20 10:31:39;;;;;;;62.00;31.98;;;;;;;4.01;84.44;100549.97;4909558;28;20054;-81
2023/01/20 10:34:17;;;;;;;57.83;31.43;;;;;;;3.74;84.56;100505.28;4885242;29;20047;-78
2023/01/20 10:36:49;;;;;;;63.67;31.60;;;;;;;3.84;84.05;100513.44;4893551;28;20047;-79
2023/01/20 10:39:53;;;;;;;56.93;32.50;;;;;;;4.14;83.69;100562.34;4889088;29;20051;-79
2023/01/20 10:42:27;;;;;;;56.57;31.37;;;;;;;4.10;84.02;100538.03;4875678;29;20054;-80
2023/01/20 10:44:54;;;;;;;58.50;30.20;;;;;;;4.05;83.46;100529.59;4869285;29;20055;-81
2023/01/20 10:47:30;;;;;;;60.10;30.90;;;;;;;3.68;83.49;100462.78;4878238;29;20065;-79
2023/01/20 10:50:23;;;;;;;54.17;28.93;;;;;;;4.21;83.94;100556.59;4893611;29;20138;-79
2023/01/20 10:53:08;;;;;;;53.27;28.90;;;;;;;4.29;83.54;100550.88;4888282;28;20065;-79
2023/01/20 10:56:04;;;;;;;46.47;28.30;;;;;;;4.28;82.33;100551.81;4888190;29;20445;-79
2023/01/20 10:58:43;;;;;;;53.90;28.60;;;;;;;4.16;82.94;100534.19;4894549;29;20790;-79
2023/01/20 11:01:16;;;;;;;53.63;29.30;;;;;;;3.89;82.98;100471.97;4881654;28;20062;-79
2023/01/20 11:03:47;;;;;;;53.47;29.40;;;;;;;4.40;82.77;100555.44;4875379;29;20091;-78
2023/01/20 11:06:28;;;;;;;50.67;26.77;;;;;;;4.33;82.55;100539.22;4904372;28;20047;-80
2023/01/20 11:09:20;;;;;;;57.00;28.17;;;;;;;4.33;82.96;100522.63;4900724;28;20058;-79
2023/01/20 11:11:53;;;;;;;45.50;26.50;;;;;;;4.44;82.07;100526.25;4908045;28;20150;-79
2023/01/20 11:14:20;;;;;;;49.37;24.90;;;;;;;4.56;81.08;100550.03;4905399;28;20380;-78
2023/01/20 11:16:57;;;;;;;51.85;26.73;;;;;;;4.54;81.74;100546.66;4895906;28;20050;-78
2023/01/20 11:19:53;;;;;;;47.45;26.45;;;;;;;4.28;81.63;100488.75;4891679;28;20058;-78
2023/01/20 11:22:33;;;;;;;48.27;26.87;;;;;;;4.36;80.77;100512.72;4866805;29;20653;-78
2023/01/20 11:25:08;;;;;;;48.65;26.65;;;;;;;4.10;81.15;100471.50;4857671;29;20506;-77
2023/01/20 11:27:42;;;;;;;51.78;28.55;;;;;;;4.13;81.68;100489.72;4882017;29;20051;-79
2023/01/20 11:30:31;;;;;;;44.00;26.87;;;;;;;4.56;81.20;100540.34;4867499;29;20434;-78
2023/01/20 11:33:20;;;;;;;45.27;26.60;;;;;;;4.67;81.40;100537.88;4878939;29;20039;-80
2023/01/20 11:36:05;;;;;;;42.50;23.85;;;;;;;4.64;81.46;100516.22;4903872;28;20051;-78
2023/01/20 11:38:46;;;;;;;45.37;26.67;;;;;;;4.21;79.59;100438.38;4885711;29;20193;-78
2023/01/20 11:41:31;;;;;;;45.65;26.13;;;;;;;4.64;80.97;100510.97;4905293;28;20083;-77
2023/01/20 11:44:09;;;;;;;44.50;25.55;;;;;;;4.82;79.58;100538.66;4896806;29;20386;-78
2023/01/20 11:46:39;;;;;;;45.60;25.05;;;;;;;4.77;80.69;100522.34;4885409;29;20055;-77
2023/01/20 11:49:18;;;;;;;42.93;24.23;;;;;;;4.84;80.18;100534.16;4914408;29;20067;-78
2023/01/20 11:51:54;;;;;;;47.95;27.48;;;;;;;4.81;79.68;100525.63;4904309;29;20102;-79
2023/01/20 11:54:27;;;;;;;40.08;24.90;;;;;;;4.75;78.72;100511.06;4924805;29;20438;-78
2023/01/20 11:57:11;;;;;;;45.40;24.17;;;;;;;4.86;78.72;100534.91;4901215;29;20063;-79
2023/01/20 11:59:48;;;;;;;;;;;;;;;4.87;80.08;100543.63;4920973;29;20050;-78
2023/01/20 12:02:26;;;;;;;47.00;26.33;;;;;;;4.85;80.23;100538.44;4900417;29;20685;-78
2023/01/20 12:05:12;;;;;;;46.40;25.93;;;;;;;4.88;78.89;100532.19;4891698;29;20047;-77
2023/01/20 12:07:45;;;;;;;51.17;28.10;;;;;;;4.47;79.63;100455.06;4897067;29;20135;-78